KCIU/CIU METAR and TAF weather

Enter ICAO airport designator
Station Type Date Time Source
KCIU METAR 2021/04/18 02:56 UTC NOAA

KCIU 180256Z AUTO 33013KT 10SM BKN010 M01/M02 A2992 RMK AO2 SLP136 T10061022 50001 FZRANO


Station Type Date Time Source
KCIU Decoded METAR 2021/04/18 02:56 UTC NOAA

Sault Ste Marie, Chippewa County International Airport, MI, United States (KCIU) 46-15N 084-28W
Apr 17, 2021 - 10:56 PM EDT / 2021.04.18 0256 UTC
Wind: from the NNW (330 degrees) at 15 MPH (13 KT):0
Visibility: 10 mile(s):0
Sky conditions: mostly cloudy
Temperature: 30.9 F (-0.6 C)
Windchill: 19 F (-7 C):1
Dew Point: 28.0 F (-2.2 C)
Relative Humidity: 88%
Pressure (altimeter): 29.92 in. Hg (1013 hPa)
Pressure tendency: 0.00 inches (0.1 hPa) higher than three hours ago
ob: KCIU 180256Z AUTO 33013KT 10SM BKN010 M01/M02 A2992 RMK AO2 SLP136 T10061022 50001 FZRANO
cycle: 3

Station Type Date Time Source
KCIU TAF UTC NOAA

Error!

Example: see airport list